Time;durP1;ratioP1;P1;durP2;ratioP2;P2;SDS_P1;SDS_P2;PMS_P1;PMS_P2;Temp;Humidity;BMP_temperature;BMP_pressure;BME280_temperature;BME280_humidity;BME280_pressure;Samples;Min_cycle;Max_cycle;Signal;HPM_P1;HPM_P2
2021/06/05 00:02:10;;;;;;;0.52;0.20;;;;;;;;;;5034345;28;20041;-85
2021/06/05 00:04:36;;;;;;;0.10;0.10;;;;;;;;;;5050707;28;20040;-85
2021/06/05 00:07:02;;;;;;;0.25;0.25;;;;;;;;;;5050645;28;20120;-85
2021/06/05 00:09:28;;;;;;;0.10;0.10;;;;;;;;;;5035244;28;20037;-84
2021/06/05 00:11:54;;;;;;;0.20;0.20;;;;;;;;;;5050657;28;20415;-85
2021/06/05 00:14:20;;;;;;;0.22;0.22;;;;;;;;;;5050679;28;20064;-85
2021/06/05 00:16:48;;;;;;;0.20;0.20;;;;;;;;;;5050472;28;20102;-84
2021/06/05 00:19:15;;;;;;;0.32;0.32;;;;;;;;;;5050222;28;20045;-85
2021/06/05 00:21:41;;;;;;;0.10;0.10;;;;;;;;;;5034027;28;20400;-85
2021/06/05 00:24:08;;;;;;;0.10;0.10;;;;;;;;;;5035053;28;20466;-85
2021/06/05 00:26:34;;;;;;;0.10;0.10;;;;;;;;;;5033821;28;20555;-85
2021/06/05 00:29:00;;;;;;;0.20;0.20;;;;;;;;;;5050200;28;20048;-84
2021/06/05 00:31:27;;;;;;;0.20;0.20;;;;;;;;;;5050339;28;20073;-85
2021/06/05 00:33:53;;;;;;;0.10;0.10;;;;;;;;;;5049983;28;20492;-85
2021/06/05 00:36:19;;;;;;;0.80;0.80;;;;;;;;;;5049997;28;20074;-85
2021/06/05 00:38:45;;;;;;;0.20;0.20;;;;;;;;;;5049868;28;20072;-85
2021/06/05 00:41:13;;;;;;;0.10;0.10;;;;;;;;;;5033310;28;20497;-85
2021/06/05 00:43:40;;;;;;;0.20;0.20;;;;;;;;;;5033573;28;20037;-84
2021/06/05 00:46:08;;;;;;;0.10;0.10;;;;;;;;;;5049882;28;20436;-85
2021/06/05 00:48:34;;;;;;;0.10;0.10;;;;;;;;;;5049719;28;20528;-85
2021/06/05 00:51:00;;;;;;;0.10;0.10;;;;;;;;;;5034400;28;20048;-85
2021/06/05 00:53:26;;;;;;;0.10;0.10;;;;;;;;;;5032236;28;20103;-85
2021/06/05 00:55:53;;;;;;;0.63;0.55;;;;;;;;;;5033455;28;20038;-85
2021/06/05 00:58:19;;;;;;;0.10;0.10;;;;;;;;;;5049479;28;20095;-85
2021/06/05 01:00:47;;;;;;;0.20;0.20;;;;;;;;;;5049403;28;20120;-85
2021/06/05 01:03:13;;;;;;;0.10;0.10;;;;;;;;;;5049818;28;20042;-84
2021/06/05 01:05:40;;;;;;;0.10;0.10;;;;;;;;;;5049744;28;20039;-85
2021/06/05 01:08:18;;;;;;;0.10;0.10;;;;;;;;;;5049379;28;20037;-85
2021/06/05 01:10:44;;;;;;;0.10;0.10;;;;;;;;;;5034022;28;20120;-85
2021/06/05 01:13:12;;;;;;;0.10;0.10;;;;;;;;;;5049406;28;20042;-85
2021/06/05 01:15:41;;;;;;;0.20;0.20;;;;;;;;;;5033217;28;20657;-86
2021/06/05 01:18:10;;;;;;;0.38;0.38;;;;;;;;;;5033867;28;20041;-84
2021/06/05 01:20:36;;;;;;;0.40;0.40;;;;;;;;;;5049162;28;20443;-83
2021/06/05 01:23:08;;;;;;;0.10;0.10;;;;;;;;;;5032649;28;20069;-85
2021/06/05 01:25:53;;;;;;;0.20;0.20;;;;;;;;;;5032472;28;20037;-85
2021/06/05 01:28:23;;;;;;;0.10;0.10;;;;;;;;;;5033660;28;20041;-85
2021/06/05 01:30:50;;;;;;;0.10;0.10;;;;;;;;;;5032451;28;20045;-85
2021/06/05 01:33:17;;;;;;;0.10;0.10;;;;;;;;;;5032543;28;20040;-85
2021/06/05 01:35:43;;;;;;;0.10;0.10;;;;;;;;;;5048991;28;20039;-85
2021/06/05 01:38:10;;;;;;;0.15;0.15;;;;;;;;;;5032298;28;20087;-85
2021/06/05 01:40:36;;;;;;;0.10;0.10;;;;;;;;;;5048557;28;20041;-85
2021/06/05 01:43:02;;;;;;;0.10;0.10;;;;;;;;;;5032239;28;20038;-85
2021/06/05 01:45:31;;;;;;;0.13;0.13;;;;;;;;;;5048717;28;20037;-85
2021/06/05 01:47:59;;;;;;;0.10;0.10;;;;;;;;;;5048680;28;20049;-85
2021/06/05 01:50:26;;;;;;;0.40;0.40;;;;;;;;;;5048806;28;20073;-85
2021/06/05 01:52:52;;;;;;;0.10;0.10;;;;;;;;;;5048631;28;20063;-85
2021/06/05 01:55:19;;;;;;;0.20;0.20;;;;;;;;;;5032215;28;20043;-85
2021/06/05 01:57:52;;;;;;;0.10;0.10;;;;;;;;;;5048476;28;20041;-85
2021/06/05 02:00:26;;;;;;;0.10;0.10;;;;;;;;;;5048516;28;20057;-85
2021/06/05 02:02:52;;;;;;;0.20;0.20;;;;;;;;;;5048511;28;20049;-85
2021/06/05 02:05:18;;;;;;;0.10;0.10;;;;;;;;;;5048113;28;20044;-85
2021/06/05 02:07:45;;;;;;;0.17;0.17;;;;;;;;;;5048507;28;20481;-85
2021/06/05 02:10:11;;;;;;;0.28;0.28;;;;;;;;;;5048319;28;20091;-85
2021/06/05 02:12:37;;;;;;;0.10;0.10;;;;;;;;;;5048206;28;20075;-85
2021/06/05 02:15:03;;;;;;;0.10;0.10;;;;;;;;;;5032913;28;20041;-85
2021/06/05 02:17:29;;;;;;;0.35;0.35;;;;;;;;;;5032690;28;20507;-85
2021/06/05 02:19:58;;;;;;;0.10;0.10;;;;;;;;;;5047993;28;20037;-85
2021/06/05 02:22:24;;;;;;;0.17;0.17;;;;;;;;;;5032666;28;20037;-85
2021/06/05 02:24:51;;;;;;;0.10;0.10;;;;;;;;;;5048065;28;20033;-84
2021/06/05 02:27:21;;;;;;;0.10;0.10;;;;;;;;;;5047868;28;20044;-85
2021/06/05 02:29:47;;;;;;;0.20;0.20;;;;;;;;;;5048074;28;20041;-84
2021/06/05 02:32:14;;;;;;;0.10;0.10;;;;;;;;;;5048305;28;20069;-85
2021/06/05 02:34:40;;;;;;;0.10;0.10;;;;;;;;;;5048050;28;20465;-85
2021/06/05 02:37:06;;;;;;;0.10;0.10;;;;;;;;;;5031044;28;20046;-84
2021/06/05 02:39:32;;;;;;;0.20;0.20;;;;;;;;;;5047978;28;20037;-85
2021/06/05 02:41:58;;;;;;;0.10;0.10;;;;;;;;;;5030971;28;20053;-85
2021/06/05 02:44:27;;;;;;;0.28;0.20;;;;;;;;;;5047608;28;20034;-85
2021/06/05 02:46:53;;;;;;;0.10;0.10;;;;;;;;;;5031081;28;20040;-85
2021/06/05 02:49:25;;;;;;;0.10;0.10;;;;;;;;;;5047127;28;20042;-85
2021/06/05 02:51:53;;;;;;;0.15;0.15;;;;;;;;;;5032147;28;20041;-85
2021/06/05 02:54:19;;;;;;;0.10;0.10;;;;;;;;;;5030953;28;20041;-85
2021/06/05 02:56:45;;;;;;;0.10;0.10;;;;;;;;;;5047433;28;20116;-85
2021/06/05 02:59:11;;;;;;;0.10;0.10;;;;;;;;;;5047480;28;20116;-85
2021/06/05 03:01:37;;;;;;;0.10;0.10;;;;;;;;;;5031975;28;20041;-85
2021/06/05 03:04:04;;;;;;;0.10;0.10;;;;;;;;;;5047441;28;20033;-85
2021/06/05 03:06:31;;;;;;;0.10;0.10;;;;;;;;;;5047309;28;20189;-85
2021/06/05 03:08:58;;;;;;;0.10;0.10;;;;;;;;;;5047297;28;20072;-85
2021/06/05 03:11:24;;;;;;;0.20;0.20;;;;;;;;;;5047333;28;20038;-85
2021/06/05 03:13:50;;;;;;;0.10;0.10;;;;;;;;;;5047425;28;20041;-84
2021/06/05 03:16:16;;;;;;;0.10;0.10;;;;;;;;;;5032045;28;20508;-85
2021/06/05 03:18:42;;;;;;;0.10;0.10;;;;;;;;;;5051525;28;20052;-85
2021/06/05 03:21:09;;;;;;;0.20;0.20;;;;;;;;;;5034804;28;20037;-84
2021/06/05 03:23:35;;;;;;;0.10;0.10;;;;;;;;;;5034445;28;20046;-85
2021/06/05 03:26:01;;;;;;;0.10;0.10;;;;;;;;;;5035990;28;20045;-85
2021/06/05 03:28:47;;;;;;;0.10;0.10;;;;;;;;;;5035022;28;20490;-85
2021/06/05 03:31:14;;;;;;;0.20;0.20;;;;;;;;;;5051229;28;20096;-84
2021/06/05 03:33:40;;;;;;;0.52;0.47;;;;;;;;;;5051286;28;20033;-85
2021/06/05 03:36:06;;;;;;;0.20;0.20;;;;;;;;;;5051151;28;20441;-85
2021/06/05 03:38:33;;;;;;;0.40;0.40;;;;;;;;;;5051009;28;20423;-85
2021/06/05 03:40:59;;;;;;;0.20;0.20;;;;;;;;;;5050889;28;20061;-85
2021/06/05 03:43:25;;;;;;;0.10;0.10;;;;;;;;;;5050978;28;20037;-85
2021/06/05 03:45:51;;;;;;;0.28;0.28;;;;;;;;;;5035606;28;20129;-85
2021/06/05 03:48:18;;;;;;;0.10;0.10;;;;;;;;;;5051043;28;20038;-85
2021/06/05 03:50:46;;;;;;;0.30;0.30;;;;;;;;;;5050628;28;20382;-85
2021/06/05 03:53:12;;;;;;;0.10;0.10;;;;;;;;;;5051068;28;20445;-85
2021/06/05 03:55:38;;;;;;;0.20;0.20;;;;;;;;;;5034221;28;20037;-85
2021/06/05 03:58:04;;;;;;;0.20;0.20;;;;;;;;;;5050537;28;20041;-84
2021/06/05 04:00:32;;;;;;;0.10;0.10;;;;;;;;;;5050707;28;20408;-84
2021/06/05 04:02:58;;;;;;;0.30;0.30;;;;;;;;;;5034217;28;20044;-85
2021/06/05 04:05:24;;;;;;;0.55;0.55;;;;;;;;;;5035240;28;20033;-85
2021/06/05 04:07:50;;;;;;;0.10;0.10;;;;;;;;;;5034098;28;20060;-85
2021/06/05 04:10:16;;;;;;;0.10;0.10;;;;;;;;;;5050632;28;20497;-84
2021/06/05 04:12:42;;;;;;;0.10;0.10;;;;;;;;;;5033943;28;20089;-85
2021/06/05 04:15:10;;;;;;;0.20;0.20;;;;;;;;;;5050537;28;20041;-84
2021/06/05 04:17:36;;;;;;;0.20;0.20;;;;;;;;;;5033730;28;20034;-85
2021/06/05 04:20:02;;;;;;;0.28;0.28;;;;;;;;;;5034958;28;20049;-85
2021/06/05 04:22:28;;;;;;;0.30;0.30;;;;;;;;;;5033969;28;20041;-85
2021/06/05 04:24:54;;;;;;;0.20;0.20;;;;;;;;;;5034777;28;20504;-84
2021/06/05 04:27:21;;;;;;;0.10;0.10;;;;;;;;;;5033952;28;20115;-85
2021/06/05 04:29:47;;;;;;;0.20;0.20;;;;;;;;;;5049024;28;20473;-85
2021/06/05 04:32:13;;;;;;;0.20;0.20;;;;;;;;;;5050140;28;20473;-85
2021/06/05 04:34:39;;;;;;;0.30;0.30;;;;;;;;;;5050109;28;20039;-85
2021/06/05 04:37:05;;;;;;;0.10;0.10;;;;;;;;;;5034528;28;20044;-85
2021/06/05 04:39:31;;;;;;;0.10;0.10;;;;;;;;;;5033280;28;20412;-84
2021/06/05 04:41:58;;;;;;;0.45;0.45;;;;;;;;;;5034501;28;20460;-85
2021/06/05 04:44:24;;;;;;;0.30;0.30;;;;;;;;;;5049958;28;20081;-85
2021/06/05 04:46:50;;;;;;;0.10;0.10;;;;;;;;;;5033675;28;20083;-84
2021/06/05 04:49:17;;;;;;;0.10;0.10;;;;;;;;;;5033369;28;20045;-85
2021/06/05 04:51:43;;;;;;;0.10;0.10;;;;;;;;;;5049836;28;20428;-85
2021/06/05 04:54:09;;;;;;;0.10;0.10;;;;;;;;;;5049649;28;20033;-85
2021/06/05 04:56:39;;;;;;;0.10;0.10;;;;;;;;;;5034187;28;20038;-85
2021/06/05 04:59:06;;;;;;;0.17;0.17;;;;;;;;;;5049749;28;20120;-85
2021/06/05 05:01:32;;;;;;;0.20;0.20;;;;;;;;;;5034190;28;20041;-85
2021/06/05 05:03:59;;;;;;;0.10;0.10;;;;;;;;;;5034170;28;20061;-85
2021/06/05 05:06:25;;;;;;;0.20;0.20;;;;;;;;;;5049595;28;20037;-85
2021/06/05 05:08:51;;;;;;;0.20;0.20;;;;;;;;;;5049516;28;20094;-85
2021/06/05 05:11:17;;;;;;;0.10;0.10;;;;;;;;;;5049362;28;20489;-85
2021/06/05 05:13:43;;;;;;;0.10;0.10;;;;;;;;;;5032848;28;20041;-85
2021/06/05 05:16:09;;;;;;;0.30;0.30;;;;;;;;;;5049496;28;20037;-86
2021/06/05 05:18:38;;;;;;;0.40;0.40;;;;;;;;;;5032811;28;20038;-86
2021/06/05 05:21:04;;;;;;;0.85;0.40;;;;;;;;;;5032292;28;20139;-86
2021/06/05 05:23:31;;;;;;;0.20;0.20;;;;;;;;;;5049179;28;20037;-85
2021/06/05 05:25:57;;;;;;;0.10;0.10;;;;;;;;;;5049305;28;20040;-86
2021/06/05 05:28:24;;;;;;;0.10;0.10;;;;;;;;;;5049063;28;20516;-86
2021/06/05 05:30:51;;;;;;;0.10;0.10;;;;;;;;;;5049249;28;20037;-86
2021/06/05 05:33:17;;;;;;;0.20;0.20;;;;;;;;;;5048936;28;20033;-86
2021/06/05 05:35:43;;;;;;;0.10;0.10;;;;;;;;;;5033563;28;20421;-86
2021/06/05 05:38:10;;;;;;;0.10;0.10;;;;;;;;;;5032105;28;20056;-86
2021/06/05 05:40:36;;;;;;;0.20;0.20;;;;;;;;;;5048214;28;20037;-86
2021/06/05 05:43:02;;;;;;;0.57;0.57;;;;;;;;;;5048908;28;20389;-85
2021/06/05 05:45:28;;;;;;;0.10;0.10;;;;;;;;;;5048807;28;20088;-85
2021/06/05 05:47:58;;;;;;;0.10;0.10;;;;;;;;;;5033384;28;20091;-85
2021/06/05 05:50:24;;;;;;;0.10;0.10;;;;;;;;;;5048802;28;20037;-85
2021/06/05 05:52:51;;;;;;;0.20;0.20;;;;;;;;;;5015834;28;20046;-86
2021/06/05 05:55:17;;;;;;;0.10;0.10;;;;;;;;;;5032087;28;20033;-85
2021/06/05 05:57:46;;;;;;;0.10;0.10;;;;;;;;;;5031951;28;20116;-85
2021/06/05 06:00:13;;;;;;;0.52;0.52;;;;;;;;;;5033162;28;20087;-86
2021/06/05 06:02:39;;;;;;;0.10;0.10;;;;;;;;;;5032213;28;20462;-85
2021/06/05 06:05:06;;;;;;;0.10;0.10;;;;;;;;;;5048239;28;20504;-86
2021/06/05 06:07:32;;;;;;;0.10;0.10;;;;;;;;;;5048294;28;20041;-86
2021/06/05 06:09:58;;;;;;;0.30;0.20;;;;;;;;;;5033147;28;20562;-86
2021/06/05 06:12:24;;;;;;;0.40;0.40;;;;;;;;;;5048338;28;20042;-85
2021/06/05 06:14:50;;;;;;;0.10;0.10;;;;;;;;;;5048380;28;20397;-86
2021/06/05 06:17:16;;;;;;;0.10;0.10;;;;;;;;;;5031585;28;20046;-86
2021/06/05 06:19:42;;;;;;;0.10;0.10;;;;;;;;;;5031612;28;20045;-86
2021/06/05 06:22:08;;;;;;;0.15;0.15;;;;;;;;;;5032865;28;20469;-86
2021/06/05 06:24:35;;;;;;;0.10;0.10;;;;;;;;;;5048265;28;20042;-87
2021/06/05 06:27:01;;;;;;;0.17;0.17;;;;;;;;;;5047868;28;20048;-84
2021/06/05 06:29:34;;;;;;;0.10;0.10;;;;;;;;;;5048149;28;20041;-84
2021/06/05 06:32:00;;;;;;;0.10;0.10;;;;;;;;;;5031414;28;20068;-85
2021/06/05 06:34:26;;;;;;;0.10;0.10;;;;;;;;;;5031567;28;20072;-85
2021/06/05 06:36:53;;;;;;;0.30;0.30;;;;;;;;;;5047786;28;20129;-85
2021/06/05 06:39:19;;;;;;;0.10;0.10;;;;;;;;;;5032401;28;20036;-85
2021/06/05 06:41:45;;;;;;;0.10;0.10;;;;;;;;;;5031098;28;20471;-85
2021/06/05 06:44:11;;;;;;;0.10;0.10;;;;;;;;;;5031214;28;20497;-84
2021/06/05 06:47:06;;;;;;;0.10;0.10;;;;;;;;;;5047670;28;20489;-85
2021/06/05 06:49:32;;;;;;;0.10;0.10;;;;;;;;;;5032419;28;20041;-85
2021/06/05 06:51:58;;;;;;;0.13;0.13;;;;;;;;;;5047005;28;20030;-85
2021/06/05 06:54:26;;;;;;;0.10;0.10;;;;;;;;;;5031100;28;20049;-85
2021/06/05 06:56:52;;;;;;;0.10;0.10;;;;;;;;;;5047511;28;20547;-85
2021/06/05 06:59:18;;;;;;;0.20;0.20;;;;;;;;;;5031026;28;20037;-86
2021/06/05 07:01:45;;;;;;;0.10;0.10;;;;;;;;;;5031014;28;20047;-85
2021/06/05 07:04:11;;;;;;;0.10;0.10;;;;;;;;;;5047632;28;20144;-86
2021/06/05 07:06:38;;;;;;;0.10;0.10;;;;;;;;;;5047445;28;20044;-85
2021/06/05 07:09:04;;;;;;;0.10;0.10;;;;;;;;;;5047449;28;20041;-86
2021/06/05 07:11:31;;;;;;;0.45;0.45;;;;;;;;;;5047445;28;20435;-86
2021/06/05 07:13:57;;;;;;;0.10;0.10;;;;;;;;;;5047628;28;20045;-85
2021/06/05 07:16:23;;;;;;;0.10;0.10;;;;;;;;;;5047355;28;20542;-85
2021/06/05 07:18:49;;;;;;;0.10;0.10;;;;;;;;;;5030839;28;20581;-85
2021/06/05 07:21:15;;;;;;;0.10;0.10;;;;;;;;;;5032027;28;20045;-85
2021/06/05 07:23:42;;;;;;;0.10;0.10;;;;;;;;;;5047449;28;20310;-85
2021/06/05 07:26:09;;;;;;;0.20;0.20;;;;;;;;;;5030716;28;20045;-85
2021/06/05 07:28:36;;;;;;;0.13;0.13;;;;;;;;;;5030875;28;20112;-85
2021/06/05 07:31:04;;;;;;;0.10;0.10;;;;;;;;;;5030845;28;20455;-85
2021/06/05 07:33:30;;;;;;;0.20;0.20;;;;;;;;;;5047301;28;20033;-85
2021/06/05 07:35:56;;;;;;;0.10;0.10;;;;;;;;;;5030704;28;20034;-85
2021/06/05 07:38:22;;;;;;;0.10;0.10;;;;;;;;;;5030380;28;20076;-86
2021/06/05 07:40:48;;;;;;;0.10;0.10;;;;;;;;;;5046895;28;20056;-85
2021/06/05 07:43:15;;;;;;;0.10;0.10;;;;;;;;;;5030493;28;20076;-85
2021/06/05 07:45:41;;;;;;;0.10;0.10;;;;;;;;;;5030617;28;20396;-85
2021/06/05 07:48:07;;;;;;;0.10;0.10;;;;;;;;;;5031742;28;20037;-85
2021/06/05 07:50:33;;;;;;;0.10;0.10;;;;;;;;;;5030738;28;20041;-85
2021/06/05 07:52:59;;;;;;;0.10;0.10;;;;;;;;;;5030628;28;20033;-85
2021/06/05 07:55:27;;;;;;;0.10;0.10;;;;;;;;;;5030435;28;20091;-85
2021/06/05 07:57:53;;;;;;;0.10;0.10;;;;;;;;;;5046824;28;20042;-85
2021/06/05 08:00:20;;;;;;;0.10;0.10;;;;;;;;;;5046958;28;20045;-85
2021/06/05 08:02:46;;;;;;;0.10;0.10;;;;;;;;;;5031315;28;20044;-86
2021/06/05 08:05:13;;;;;;;0.17;0.17;;;;;;;;;;5035364;28;20037;-85
2021/06/05 08:07:39;;;;;;;0.10;0.10;;;;;;;;;;5034110;28;20045;-85
2021/06/05 08:10:05;;;;;;;0.10;0.10;;;;;;;;;;5034361;28;20120;-85
2021/06/05 08:12:31;;;;;;;0.20;0.20;;;;;;;;;;5034251;28;20079;-85
2021/06/05 08:14:58;;;;;;;0.10;0.10;;;;;;;;;;5033971;28;20064;-85
2021/06/05 08:17:24;;;;;;;0.10;0.10;;;;;;;;;;5033865;28;20519;-85
2021/06/05 08:19:50;;;;;;;0.20;0.20;;;;;;;;;;5033935;28;20071;-85
2021/06/05 08:22:22;;;;;;;0.20;0.20;;;;;;;;;;5034916;28;20132;-85
2021/06/05 08:24:48;;;;;;;0.10;0.10;;;;;;;;;;5035020;28;20119;-85
2021/06/05 08:27:14;;;;;;;0.30;0.30;;;;;;;;;;5034861;28;20087;-85
2021/06/05 08:29:40;;;;;;;0.45;0.25;;;;;;;;;;5033640;28;20038;-85
2021/06/05 08:32:06;;;;;;;0.57;0.30;;;;;;;;;;5034999;28;20155;-85
2021/06/05 08:34:32;;;;;;;0.20;0.20;;;;;;;;;;5034857;28;20045;-85
2021/06/05 08:36:58;;;;;;;0.10;0.10;;;;;;;;;;5049914;28;20181;-85
2021/06/05 08:39:24;;;;;;;0.10;0.10;;;;;;;;;;5033592;28;20474;-85
2021/06/05 08:41:51;;;;;;;0.10;0.10;;;;;;;;;;5049961;28;20059;-85
2021/06/05 08:44:22;;;;;;;0.20;0.20;;;;;;;;;;5033729;28;20037;-85
2021/06/05 08:46:55;;;;;;;0.10;0.10;;;;;;;;;;5049858;28;20037;-85
2021/06/05 08:49:22;;;;;;;0.38;0.38;;;;;;;;;;5049769;28;20493;-85
2021/06/05 08:52:07;;;;;;;0.13;0.13;;;;;;;;;;5033222;28;20494;-85
2021/06/05 08:55:03;;;;;;;0.10;0.10;;;;;;;;;;5034437;28;20119;-85
2021/06/05 08:57:33;;;;;;;0.10;0.10;;;;;;;;;;5013513;28;20535;-84
2021/06/05 09:00:04;;;;;;;1.90;0.30;;;;;;;;;;5034257;28;20064;-85
2021/06/05 09:02:30;;;;;;;0.10;0.10;;;;;;;;;;5049677;28;20042;-85
2021/06/05 09:04:57;;;;;;;0.22;0.22;;;;;;;;;;5049553;28;20037;-85
2021/06/05 09:07:23;;;;;;;0.20;0.20;;;;;;;;;;5032857;28;20038;-84
2021/06/05 09:09:50;;;;;;;0.20;0.20;;;;;;;;;;5032980;28;20087;-85
2021/06/05 09:12:17;;;;;;;0.32;0.32;;;;;;;;;;5034035;28;20045;-84
2021/06/05 09:14:44;;;;;;;0.10;0.10;;;;;;;;;;5033275;28;20098;-84
2021/06/05 09:17:17;;;;;;;0.20;0.20;;;;;;;;;;5049472;28;20120;-84
2021/06/05 09:19:44;;;;;;;0.50;0.50;;;;;;;;;;5049279;28;20113;-84
2021/06/05 09:22:10;;;;;;;0.10;0.10;;;;;;;;;;5049667;28;20044;-84
2021/06/05 09:24:40;;;;;;;0.47;0.47;;;;;;;;;;5032742;28;20041;-84
2021/06/05 09:27:18;;;;;;;0.50;0.50;;;;;;;;;;5049217;28;20064;-86
2021/06/05 09:29:44;;;;;;;0.47;0.40;;;;;;;;;;5033782;28;20033;-84
2021/06/05 09:32:11;;;;;;;0.20;0.20;;;;;;;;;;5033845;28;20048;-83
2021/06/05 09:34:39;;;;;;;0.20;0.20;;;;;;;;;;5049251;28;20132;-86
2021/06/05 09:37:05;;;;;;;0.10;0.10;;;;;;;;;;5049177;28;20037;-87
2021/06/05 09:39:35;;;;;;;0.20;0.20;;;;;;;;;;5049001;28;20052;-87
2021/06/05 09:42:01;;;;;;;0.60;0.32;;;;;;;;;;5048987;28;20057;-86
2021/06/05 09:44:38;;;;;;;0.25;0.25;;;;;;;;;;5032360;28;20481;-86
2021/06/05 09:47:20;;;;;;;0.10;0.10;;;;;;;;;;5032060;28;20126;-86
2021/06/05 09:49:47;;;;;;;0.10;0.10;;;;;;;;;;5048879;28;20478;-85
2021/06/05 09:52:14;;;;;;;0.30;0.30;;;;;;;;;;5033175;28;20041;-87
2021/06/05 09:54:44;;;;;;;0.10;0.10;;;;;;;;;;5048737;28;20037;-86
2021/06/05 09:57:33;;;;;;;0.22;0.22;;;;;;;;;;5048485;28;20033;-86
2021/06/05 10:00:06;;;;;;;0.10;0.10;;;;;;;;;;5023189;28;20049;-86
2021/06/05 10:02:32;;;;;;;0.15;0.15;;;;;;;;;;5033062;28;20504;-86
2021/06/05 10:05:09;;;;;;;0.20;0.20;;;;;;;;;;5048642;28;20037;-86
2021/06/05 10:07:35;;;;;;;0.10;0.10;;;;;;;;;;5048265;28;20508;-86
2021/06/05 10:10:02;;;;;;;0.10;0.10;;;;;;;;;;5048244;28;20045;-85
2021/06/05 10:12:28;;;;;;;0.10;0.10;;;;;;;;;;5031730;28;20124;-84
2021/06/05 10:14:59;;;;;;;0.10;0.10;;;;;;;;;;5048340;28;20108;-87
2021/06/05 10:17:25;;;;;;;0.10;0.10;;;;;;;;;;5031569;28;20048;-85
2021/06/05 10:19:56;;;;;;;0.20;0.20;;;;;;;;;;5031840;28;20462;-86
2021/06/05 10:22:22;;;;;;;0.10;0.10;;;;;;;;;;5048143;28;20065;-85
2021/06/05 10:25:21;;;;;;;0.10;0.10;;;;;;;;;;5048120;28;20492;-85
2021/06/05 10:27:48;;;;;;;0.15;0.15;;;;;;;;;;4978161;28;20469;-85
2021/06/05 10:30:24;;;;;;;0.10;0.10;;;;;;;;;;5031507;28;20390;-85
2021/06/05 10:32:50;;;;;;;0.10;0.10;;;;;;;;;;5032790;28;20485;-84
2021/06/05 10:35:32;;;;;;;0.10;0.10;;;;;;;;;;5047978;28;20189;-85
2021/06/05 10:38:18;;;;;;;0.10;0.10;;;;;;;;;;5047503;28;20044;-85
2021/06/05 10:40:47;;;;;;;0.10;0.10;;;;;;;;;;5032513;28;20116;-83
2021/06/05 10:43:15;;;;;;;0.10;0.10;;;;;;;;;;5031344;28;20045;-84
2021/06/05 10:45:42;;;;;;;0.10;0.10;;;;;;;;;;5031446;28;20038;-84
2021/06/05 10:48:08;;;;;;;0.20;0.20;;;;;;;;;;5031015;28;20555;-83
2021/06/05 10:50:35;;;;;;;0.10;0.10;;;;;;;;;;5032394;28;20060;-84
2021/06/05 10:53:10;;;;;;;0.10;0.10;;;;;;;;;;5031062;28;20096;-84
2021/06/05 10:55:42;;;;;;;0.10;0.10;;;;;;;;;;5047588;28;20045;-84
2021/06/05 10:58:08;;;;;;;0.10;0.10;;;;;;;;;;5047386;28;20038;-84
2021/06/05 11:00:42;;;;;;;0.10;0.10;;;;;;;;;;5032144;28;20496;-83
2021/06/05 11:03:08;;;;;;;0.10;0.10;;;;;;;;;;5032369;28;20044;-83
2021/06/05 11:05:36;;;;;;;0.10;0.10;;;;;;;;;;5030885;28;20124;-83
2021/06/05 11:08:08;;;;;;;0.10;0.10;;;;;;;;;;5031074;28;20045;-83
2021/06/05 11:10:47;;;;;;;0.10;0.10;;;;;;;;;;5032178;28;20041;-84
2021/06/05 11:13:32;;;;;;;0.10;0.10;;;;;;;;;;5047587;28;20033;-85
2021/06/05 11:16:19;;;;;;;0.10;0.10;;;;;;;;;;5030987;28;20116;-84
2021/06/05 11:18:48;;;;;;;0.10;0.10;;;;;;;;;;5031111;28;20045;-84
2021/06/05 11:21:21;;;;;;;0.10;0.10;;;;;;;;;;5047637;28;20073;-84
2021/06/05 11:23:55;;;;;;;0.10;0.10;;;;;;;;;;5031991;28;20038;-84
2021/06/05 11:26:37;;;;;;;0.10;0.10;;;;;;;;;;5031838;28;20048;-83
2021/06/05 11:29:07;;;;;;;0.10;0.10;;;;;;;;;;5031986;28;20076;-84
2021/06/05 11:31:46;;;;;;;0.10;0.10;;;;;;;;;;5047440;28;20044;-83
2021/06/05 11:34:30;;;;;;;0.10;0.10;;;;;;;;;;5030665;28;20052;-83
2021/06/05 11:37:05;;;;;;;0.10;0.10;;;;;;;;;;5031803;28;20087;-83
2021/06/05 11:39:31;;;;;;;0.10;0.10;;;;;;;;;;5034521;28;20099;-83
2021/06/05 11:42:01;;;;;;;0.10;0.10;;;;;;;;;;5035528;28;20092;-83
2021/06/05 11:44:39;;;;;;;0.10;0.10;;;;;;;;;;5035637;28;20041;-83
2021/06/05 11:47:18;;;;;;;0.10;0.10;;;;;;;;;;5050645;28;20069;-83
2021/06/05 11:49:57;;;;;;;0.10;0.10;;;;;;;;;;5034496;28;20477;-83
2021/06/05 11:52:26;;;;;;;0.17;0.17;;;;;;;;;;5050881;28;20045;-83
2021/06/05 11:55:09;;;;;;;0.10;0.10;;;;;;;;;;5034122;28;20038;-83
2021/06/05 11:57:37;;;;;;;0.10;0.10;;;;;;;;;;5034254;28;20080;-83
2021/06/05 12:00:09;;;;;;;0.20;0.20;;;;;;;;;;5050723;28;20030;-83
2021/06/05 12:02:36;;;;;;;0.10;0.10;;;;;;;;;;5034028;28;20061;-83
2021/06/05 12:05:05;;;;;;;0.28;0.17;;;;;;;;;;5034133;28;20107;-83
2021/06/05 12:07:35;;;;;;;0.10;0.10;;;;;;;;;;5050319;28;20041;-83
2021/06/05 12:10:01;;;;;;;0.10;0.10;;;;;;;;;;5050573;28;20068;-83
2021/06/05 12:12:29;;;;;;;0.10;0.10;;;;;;;;;;5035185;28;20059;-82
2021/06/05 12:15:00;;;;;;;0.10;0.10;;;;;;;;;;5035241;28;20099;-83
2021/06/05 12:17:31;;;;;;;0.10;0.10;;;;;;;;;;5033702;28;20072;-83
2021/06/05 12:20:12;;;;;;;0.40;0.40;;;;;;;;;;5050490;28;20065;-83
2021/06/05 12:22:38;;;;;;;0.10;0.10;;;;;;;;;;5050510;28;20478;-83
2021/06/05 12:25:04;;;;;;;0.20;0.20;;;;;;;;;;5033880;28;20511;-83
2021/06/05 12:27:35;;;;;;;0.10;0.10;;;;;;;;;;5034833;28;20072;-83
2021/06/05 12:30:08;;;;;;;0.10;0.10;;;;;;;;;;5050481;28;20099;-82
2021/06/05 12:32:34;;;;;;;0.10;0.10;;;;;;;;;;5050109;28;20034;-84
2021/06/05 12:35:17;;;;;;;0.10;0.10;;;;;;;;;;5033694;28;20033;-85
2021/06/05 12:37:43;;;;;;;0.10;0.10;;;;;;;;;;5050002;28;20120;-83
2021/06/05 12:40:16;;;;;;;0.10;0.10;;;;;;;;;;5050103;28;20069;-83
2021/06/05 12:42:43;;;;;;;0.10;0.10;;;;;;;;;;5049774;28;20100;-83
2021/06/05 12:45:10;;;;;;;0.10;0.10;;;;;;;;;;5049932;28;20041;-83
2021/06/05 12:47:37;;;;;;;0.10;0.10;;;;;;;;;;5049787;28;20090;-83
2021/06/05 12:50:04;;;;;;;0.10;0.10;;;;;;;;;;5048683;28;20111;-83
2021/06/05 12:52:30;;;;;;;0.10;0.10;;;;;;;;;;5049827;28;20041;-83
2021/06/05 12:55:15;;;;;;;0.10;0.10;;;;;;;;;;5049668;28;20072;-83
2021/06/05 12:57:52;;;;;;;0.10;0.10;;;;;;;;;;5034142;28;20037;-83
2021/06/05 13:00:41;;;;;;;0.10;0.10;;;;;;;;;;5033220;28;20222;-83
2021/06/05 13:03:08;;;;;;;0.10;0.10;;;;;;;;;;5020860;28;20049;-83
2021/06/05 13:05:41;;;;;;;0.13;0.13;;;;;;;;;;5034179;28;20038;-83
2021/06/05 13:08:14;;;;;;;0.10;0.10;;;;;;;;;;5034106;28;20060;-83
2021/06/05 13:10:46;;;;;;;0.10;0.10;;;;;;;;;;5049500;28;20040;-83
2021/06/05 13:13:13;;;;;;;0.15;0.15;;;;;;;;;;5034081;28;20094;-83
2021/06/05 13:15:44;;;;;;;0.10;0.10;;;;;;;;;;5049401;28;20029;-85
2021/06/05 13:18:11;;;;;;;0.10;0.10;;;;;;;;;;5033792;28;20040;-85
2021/06/05 13:20:46;;;;;;;0.10;0.10;;;;;;;;;;5049218;28;20072;-83
2021/06/05 13:23:20;;;;;;;0.10;0.10;;;;;;;;;;5032731;28;20033;-85
2021/06/05 13:25:46;;;;;;;0.10;0.10;;;;;;;;;;5049085;28;20035;-83
2021/06/05 13:28:14;;;;;;;0.10;0.10;;;;;;;;;;5032503;28;20060;-83
2021/06/05 13:30:53;;;;;;;0.10;0.10;;;;;;;;;;5048940;28;20096;-84
2021/06/05 13:33:39;;;;;;;0.10;0.10;;;;;;;;;;5049005;28;20479;-84
2021/06/05 13:36:20;;;;;;;0.10;0.10;;;;;;;;;;5048814;28;20044;-84
2021/06/05 13:38:55;;;;;;;0.10;0.10;;;;;;;;;;5033390;28;20045;-84
2021/06/05 13:41:22;;;;;;;0.10;0.10;;;;;;;;;;5048874;28;20394;-84
2021/06/05 13:43:48;;;;;;;0.63;0.63;;;;;;;;;;5032516;28;20393;-84
2021/06/05 13:46:14;;;;;;;0.40;0.40;;;;;;;;;;5048591;28;20041;-83
2021/06/05 13:48:40;;;;;;;0.15;0.15;;;;;;;;;;5032245;28;20049;-84
2021/06/05 13:51:06;;;;;;;0.10;0.10;;;;;;;;;;5048894;28;20543;-85
2021/06/05 13:53:33;;;;;;;0.17;0.17;;;;;;;;;;5048658;28;20048;-85
2021/06/05 13:56:00;;;;;;;0.10;0.10;;;;;;;;;;5048670;28;20061;-84
2021/06/05 13:58:26;;;;;;;0.10;0.10;;;;;;;;;;5032110;28;20041;-84
2021/06/05 14:00:52;;;;;;;0.20;0.20;;;;;;;;;;5032074;28;20037;-83
2021/06/05 14:03:20;;;;;;;0.10;0.10;;;;;;;;;;5048349;28;20046;-83
2021/06/05 14:05:46;;;;;;;0.10;0.10;;;;;;;;;;5031996;28;20088;-84
2021/06/05 14:08:12;;;;;;;0.10;0.10;;;;;;;;;;5032877;28;20103;-87
2021/06/05 14:10:39;;;;;;;0.10;0.10;;;;;;;;;;5048320;28;20547;-87
2021/06/05 14:13:05;;;;;;;0.13;0.13;;;;;;;;;;5031812;28;20048;-84
2021/06/05 14:15:35;;;;;;;0.10;0.10;;;;;;;;;;5048162;28;20051;-84
2021/06/05 14:18:01;;;;;;;0.10;0.10;;;;;;;;;;5031559;28;20041;-84
2021/06/05 14:20:29;;;;;;;0.10;0.10;;;;;;;;;;5048345;28;20112;-86
2021/06/05 14:22:55;;;;;;;0.10;0.10;;;;;;;;;;5031775;28;20436;-84
2021/06/05 14:25:21;;;;;;;0.10;0.10;;;;;;;;;;5048071;28;20107;-84
2021/06/05 14:27:48;;;;;;;0.20;0.20;;;;;;;;;;5032598;28;20045;-83
2021/06/05 14:30:16;;;;;;;0.20;0.20;;;;;;;;;;5048067;28;20041;-88
2021/06/05 14:32:42;;;;;;;0.10;0.10;;;;;;;;;;5048049;28;20201;-89
2021/06/05 14:35:08;;;;;;;0.10;0.10;;;;;;;;;;5031510;28;20038;-86
2021/06/05 14:37:34;;;;;;;0.10;0.10;;;;;;;;;;5014671;28;20049;-86
2021/06/05 14:40:00;;;;;;;0.20;0.20;;;;;;;;;;5031299;28;20048;-85
2021/06/05 14:42:28;;;;;;;0.10;0.10;;;;;;;;;;5047659;28;20088;-85
2021/06/05 14:44:55;;;;;;;0.30;0.30;;;;;;;;;;5031437;28;20503;-85
2021/06/05 14:47:21;;;;;;;0.10;0.10;;;;;;;;;;5031092;28;20512;-85
2021/06/05 14:49:47;;;;;;;0.10;0.10;;;;;;;;;;5031105;28;20583;-84
2021/06/05 14:52:13;;;;;;;0.20;0.20;;;;;;;;;;5032270;28;20116;-83